Paris, France

05:35 CEST le 26 septembre 2016 (GMT +0200)
Charles de Gaulle | | Change Station

Alt. 367 ft 49.02 °N, 2.53 °E | Updated 5 minutes ago

Mostly Cloudy
Nuageux
50 ° F
Paraît 50 ° F
N
4
Vent Variable Vent de Variable

Aujourd'hui
Haut(e) -- | Bas -- ° F
--% Risque de précip.
Hier
Haut(e) -- | Bas -- ° F
Precip. -- pouce
Pression 30.24 pouce
Visibilité 6.2 Miles terrestres
Nuages Peu 1300 ft
Nuageux 26000 ft
Point de rosée 46 ° F
Humidité 87%
Précipitations 0.00 pouce
Profondeur de la couche neigeuse Non disponible.
7:42 AM 7:38 PM
Lune descendante, 22% visible
METAR LFPG 260330Z VRB03KT 9999 FEW013 BKN260 10/08 Q1024 NOSIG
Pression 30.24 pouce
Visibilité 6.2 Miles terrestres
Nuages Peu 1300 ft
Nuageux 26000 ft
Point de rosée 46 ° F
Humidité 87%
Précipitations 0.00 pouce
Profondeur de la couche neigeuse Non disponible.
7:42 AM 7:38 PM
Lune descendante, 22% visible
METAR LFPG 260330Z VRB03KT 9999 FEW013 BKN260 10/08 Q1024 NOSIG

10-Day Weather Forecast

×

Almanac

Astronomie

Sep. 26, 2016 Lever Coucher
Temps réel
Crépuscule civil
Crépuscule nautique
Crépuscule astronomique
Lune
Durée de lumière visible
Longueur du jour
Tomorrow will be .
, % of the Moon is Illuminated

Extrêmes aujourd'hui

Country Highs Country Lows

Community

WunderPhotos

Upload Photos

1,941,837 Photos téléchargées !

WunderBlog® & News

Nearby

Qualité de l'air

  Qualité de l'air Indice de la qualité de l'air Polluant
Not available.

Épaisseur de neige

Station Depth Altitude

Activité sismique

Ville Distance Mag. Time & Date
Minimum magnitude displayed is 2.5.

Températures des eaux côtières

Lieu Température

Stations

Stations météo à proximité

Emplacement de la station Température Refroidissement éolien Point de rosée Humidité Vent Precip. Alt. Mise à jour Type